Airfield :
LOGIN :

Register | Disclaimer

   EN    FR    IT 

 










Legend :    VFR   Marginal VFR   IFR   Intensive IFR   Very Intensive IFR
Visi :
Ceiling :
>= 8 km
>= 3000ft
5 to 8 km
1000 to 3000 ft
1500m to 5 km
500 to 1000 ft
800 to 1500m
200 to 500 ft
< 800m
< 200 ft
Symbols :   Thunderstorms  Fog  Heavy snow  Heavy precipitations  Wind > 20 kt
SIGMETs :     Misc.  Thunderstorms  Icing  Turbulence  Mountain Waves  Volcanic Ashes






- Airport Elevation : 1234 ft
- IATA code : LUX


ELLX - Luxembourg Findel

CURRENT METAR :
  • 181920Z 23011KT 9999 BKN007 02/01 Q1023 NOSIG

EXPIRED METARs :
  • 181850Z 23010KT 9999 BKN008 02/01 Q1023 NOSIG
  • 181820Z 22007KT 9999 BKN008 02/01 Q1023 NOSIG
  • 181750Z 22008KT 9999 BKN007 02/01 Q1023 NOSIG
  • 181720Z 22008KT 9999 BKN008 02/01 Q1023 NOSIG
  • 181650Z 22009KT 9999 BKN008 02/01 Q1023 NOSIG
  • 181620Z 22007KT 9999 BKN009 02/01 Q1023 NOSIG

TAF COR TAF ELLX
Valid from the 18 at 18:00 until the 20 at 00:00 UTC


181700Z 1818/1924 23010KT 9999 BKN008
TEMPO 1905/1914 23013G25KT 4000 -SNRA BKN004
PROB30
TEMPO 1906/1912 2000 -FZRA BR BKN002
BECMG 1914/1917 BKN015
ATIS : +352 4798 27300
Met : +352 4798 27010 / 27050



MET'MAP, your aeronautical weather chart ! - Copyright ORBIFLY December 2007 - Disclaimer

ORBIFLY MET'MAP TEAM :

Programming & Development : Alexandra Zaïnal
Concept & original design : Baudouin d'Aumeries
Assistance for programming : Marc-Olivier Méhu
Technical & hardware support : Manuel Goepfert

Contact : metmap@orbifly.com




SOURCES & CREDITS :

   NOAA